sensor_id;sensor_type;location;lat;lon;timestamp;P1;durP1;ratioP1;P2;durP2;ratioP2
11514;SDS011;5814;41.936;25.556;2022-10-17T00:01:42;11.37;;;10.50;;
11514;SDS011;5814;41.936;25.556;2022-10-17T00:04:09;11.93;;;10.93;;
11514;SDS011;5814;41.936;25.556;2022-10-17T00:06:36;11.70;;;10.70;;
11514;SDS011;5814;41.936;25.556;2022-10-17T00:09:03;11.80;;;10.90;;
11514;SDS011;5814;41.936;25.556;2022-10-17T00:11:31;11.17;;;10.17;;
11514;SDS011;5814;41.936;25.556;2022-10-17T00:13:58;11.00;;;10.10;;
11514;SDS011;5814;41.936;25.556;2022-10-17T00:16:27;11.07;;;10.07;;
11514;SDS011;5814;41.936;25.556;2022-10-17T00:18:57;10.60;;;9.80;;
11514;SDS011;5814;41.936;25.556;2022-10-17T00:21:24;10.17;;;9.47;;
11514;SDS011;5814;41.936;25.556;2022-10-17T00:23:51;10.93;;;10.03;;
11514;SDS011;5814;41.936;25.556;2022-10-17T00:26:18;10.37;;;9.57;;
11514;SDS011;5814;41.936;25.556;2022-10-17T00:28:46;11.20;;;10.20;;
11514;SDS011;5814;41.936;25.556;2022-10-17T00:31:13;11.17;;;10.33;;
11514;SDS011;5814;41.936;25.556;2022-10-17T00:33:40;11.17;;;10.27;;
11514;SDS011;5814;41.936;25.556;2022-10-17T00:36:10;11.20;;;10.10;;
11514;SDS011;5814;41.936;25.556;2022-10-17T00:38:35;10.47;;;9.57;;
11514;SDS011;5814;41.936;25.556;2022-10-17T00:41:02;10.40;;;9.70;;
11514;SDS011;5814;41.936;25.556;2022-10-17T00:43:47;11.20;;;9.80;;
11514;SDS011;5814;41.936;25.556;2022-10-17T00:45:57;11.37;;;10.37;;
11514;SDS011;5814;41.936;25.556;2022-10-17T00:48:24;13.33;;;12.00;;
11514;SDS011;5814;41.936;25.556;2022-10-17T00:50:51;12.13;;;11.13;;
11514;SDS011;5814;41.936;25.556;2022-10-17T00:53:18;12.30;;;11.30;;
11514;SDS011;5814;41.936;25.556;2022-10-17T00:55:48;11.33;;;10.33;;
11514;SDS011;5814;41.936;25.556;2022-10-17T00:58:14;11.97;;;11.07;;
11514;SDS011;5814;41.936;25.556;2022-10-17T01:00:42;11.03;;;10.23;;
11514;SDS011;5814;41.936;25.556;2022-10-17T01:03:09;11.00;;;10.10;;
11514;SDS011;5814;41.936;25.556;2022-10-17T01:05:36;11.40;;;10.40;;
11514;SDS011;5814;41.936;25.556;2022-10-17T01:08:04;10.97;;;10.07;;
11514;SDS011;5814;41.936;25.556;2022-10-17T01:10:34;9.90;;;9.00;;
11514;SDS011;5814;41.936;25.556;2022-10-17T01:13:06;9.77;;;9.07;;
11514;SDS011;5814;41.936;25.556;2022-10-17T01:15:37;9.43;;;8.73;;
11514;SDS011;5814;41.936;25.556;2022-10-17T01:18:18;9.80;;;9.10;;
11514;SDS011;5814;41.936;25.556;2022-10-17T01:23:43;10.10;;;9.40;;
11514;SDS011;5814;41.936;25.556;2022-10-17T01:26:47;9.80;;;9.00;;
11514;SDS011;5814;41.936;25.556;2022-10-17T01:29:00;8.07;;;7.57;;
11514;SDS011;5814;41.936;25.556;2022-10-17T01:31:28;10.30;;;9.30;;
11514;SDS011;5814;41.936;25.556;2022-10-17T01:34:09;9.27;;;8.67;;
11514;SDS011;5814;41.936;25.556;2022-10-17T01:37:12;8.93;;;8.23;;
11514;SDS011;5814;41.936;25.556;2022-10-17T01:39:23;9.13;;;8.43;;
11514;SDS011;5814;41.936;25.556;2022-10-17T01:41:51;8.67;;;8.00;;
11514;SDS011;5814;41.936;25.556;2022-10-17T01:44:34;9.50;;;8.80;;
11514;SDS011;5814;41.936;25.556;2022-10-17T01:47:00;9.63;;;8.73;;
11514;SDS011;5814;41.936;25.556;2022-10-17T01:49:26;9.77;;;8.53;;
11514;SDS011;5814;41.936;25.556;2022-10-17T01:51:55;9.90;;;9.10;;
11514;SDS011;5814;41.936;25.556;2022-10-17T01:54:25;13.30;;;12.17;;
11514;SDS011;5814;41.936;25.556;2022-10-17T01:56:58;10.13;;;9.33;;
11514;SDS011;5814;41.936;25.556;2022-10-17T01:59:26;13.43;;;9.53;;
11514;SDS011;5814;41.936;25.556;2022-10-17T02:01:53;10.40;;;9.43;;
11514;SDS011;5814;41.936;25.556;2022-10-17T02:04:20;10.50;;;9.50;;
11514;SDS011;5814;41.936;25.556;2022-10-17T02:06:47;10.03;;;9.13;;
11514;SDS011;5814;41.936;25.556;2022-10-17T02:09:19;9.87;;;9.07;;
11514;SDS011;5814;41.936;25.556;2022-10-17T02:11:49;11.97;;;9.60;;
11514;SDS011;5814;41.936;25.556;2022-10-17T02:14:20;10.97;;;9.83;;
11514;SDS011;5814;41.936;25.556;2022-10-17T02:16:56;24.00;;;22.23;;
11514;SDS011;5814;41.936;25.556;2022-10-17T02:19:54;10.43;;;9.70;;
11514;SDS011;5814;41.936;25.556;2022-10-17T02:22:26;10.73;;;9.67;;
11514;SDS011;5814;41.936;25.556;2022-10-17T02:24:58;11.37;;;9.97;;
11514;SDS011;5814;41.936;25.556;2022-10-17T02:27:35;10.83;;;10.03;;
11514;SDS011;5814;41.936;25.556;2022-10-17T02:30:09;10.63;;;9.73;;
11514;SDS011;5814;41.936;25.556;2022-10-17T02:32:53;22.53;;;20.93;;
11514;SDS011;5814;41.936;25.556;2022-10-17T02:35:19;11.30;;;10.30;;
11514;SDS011;5814;41.936;25.556;2022-10-17T02:37:46;10.87;;;9.97;;
11514;SDS011;5814;41.936;25.556;2022-10-17T02:40:14;10.70;;;9.80;;
11514;SDS011;5814;41.936;25.556;2022-10-17T02:42:41;14.00;;;11.13;;
11514;SDS011;5814;41.936;25.556;2022-10-17T02:45:08;10.37;;;9.40;;
11514;SDS011;5814;41.936;25.556;2022-10-17T02:47:42;9.60;;;8.90;;
11514;SDS011;5814;41.936;25.556;2022-10-17T02:50:08;9.53;;;8.93;;
11514;SDS011;5814;41.936;25.556;2022-10-17T02:52:38;9.80;;;9.00;;
11514;SDS011;5814;41.936;25.556;2022-10-17T02:55:09;10.13;;;9.37;;
11514;SDS011;5814;41.936;25.556;2022-10-17T02:57:36;11.10;;;10.27;;
11514;SDS011;5814;41.936;25.556;2022-10-17T03:00:17;11.97;;;10.83;;
11514;SDS011;5814;41.936;25.556;2022-10-17T03:02:46;11.27;;;10.40;;
11514;SDS011;5814;41.936;25.556;2022-10-17T03:05:14;10.17;;;9.27;;
11514;SDS011;5814;41.936;25.556;2022-10-17T03:07:40;10.17;;;9.27;;
11514;SDS011;5814;41.936;25.556;2022-10-17T03:10:07;11.23;;;10.33;;
11514;SDS011;5814;41.936;25.556;2022-10-17T03:12:34;17.03;;;15.53;;
11514;SDS011;5814;41.936;25.556;2022-10-17T03:15:01;15.93;;;14.30;;
11514;SDS011;5814;41.936;25.556;2022-10-17T03:17:29;15.37;;;13.70;;
11514;SDS011;5814;41.936;25.556;2022-10-17T03:19:56;10.57;;;9.77;;
11514;SDS011;5814;41.936;25.556;2022-10-17T03:22:23;9.73;;;9.03;;
11514;SDS011;5814;41.936;25.556;2022-10-17T03:24:50;9.63;;;8.90;;
11514;SDS011;5814;41.936;25.556;2022-10-17T03:27:17;10.00;;;9.20;;
11514;SDS011;5814;41.936;25.556;2022-10-17T03:29:45;14.97;;;13.77;;
11514;SDS011;5814;41.936;25.556;2022-10-17T03:32:12;12.90;;;11.97;;
11514;SDS011;5814;41.936;25.556;2022-10-17T03:34:39;11.67;;;10.57;;
11514;SDS011;5814;41.936;25.556;2022-10-17T03:37:06;12.57;;;11.57;;
11514;SDS011;5814;41.936;25.556;2022-10-17T03:39:33;12.77;;;11.67;;
11514;SDS011;5814;41.936;25.556;2022-10-17T03:42:00;12.13;;;11.03;;
11514;SDS011;5814;41.936;25.556;2022-10-17T03:44:28;14.70;;;13.50;;
11514;SDS011;5814;41.936;25.556;2022-10-17T03:46:55;14.63;;;13.30;;
11514;SDS011;5814;41.936;25.556;2022-10-17T03:49:22;17.70;;;16.10;;
11514;SDS011;5814;41.936;25.556;2022-10-17T03:51:49;14.53;;;13.13;;
11514;SDS011;5814;41.936;25.556;2022-10-17T03:54:16;20.17;;;18.30;;
11514;SDS011;5814;41.936;25.556;2022-10-17T03:56:44;11.50;;;10.50;;
11514;SDS011;5814;41.936;25.556;2022-10-17T03:59:12;20.03;;;10.63;;
11514;SDS011;5814;41.936;25.556;2022-10-17T04:01:39;10.47;;;9.57;;
11514;SDS011;5814;41.936;25.556;2022-10-17T04:04:06;11.77;;;10.60;;
11514;SDS011;5814;41.936;25.556;2022-10-17T04:06:33;12.23;;;9.70;;
11514;SDS011;5814;41.936;25.556;2022-10-17T04:09:00;19.37;;;17.13;;
11514;SDS011;5814;41.936;25.556;2022-10-17T04:11:27;17.00;;;15.53;;
11514;SDS011;5814;41.936;25.556;2022-10-17T04:13:55;18.50;;;16.80;;
11514;SDS011;5814;41.936;25.556;2022-10-17T04:16:22;16.40;;;15.03;;
11514;SDS011;5814;41.936;25.556;2022-10-17T04:18:52;16.83;;;15.13;;
11514;SDS011;5814;41.936;25.556;2022-10-17T04:21:18;19.07;;;17.07;;
11514;SDS011;5814;41.936;25.556;2022-10-17T04:23:45;15.73;;;14.27;;
11514;SDS011;5814;41.936;25.556;2022-10-17T04:26:12;13.20;;;11.93;;
11514;SDS011;5814;41.936;25.556;2022-10-17T04:28:40;14.80;;;13.60;;
11514;SDS011;5814;41.936;25.556;2022-10-17T04:31:08;13.13;;;11.70;;
11514;SDS011;5814;41.936;25.556;2022-10-17T04:33:34;12.70;;;11.60;;
11514;SDS011;5814;41.936;25.556;2022-10-17T04:36:04;14.43;;;13.23;;
11514;SDS011;5814;41.936;25.556;2022-10-17T04:38:31;13.73;;;12.63;;
11514;SDS011;5814;41.936;25.556;2022-10-17T04:40:58;13.83;;;12.63;;
11514;SDS011;5814;41.936;25.556;2022-10-17T04:43:25;24.27;;;21.87;;
11514;SDS011;5814;41.936;25.556;2022-10-17T04:45:52;17.23;;;14.50;;
11514;SDS011;5814;41.936;25.556;2022-10-17T04:48:19;13.47;;;12.33;;
11514;SDS011;5814;41.936;25.556;2022-10-17T04:50:52;13.27;;;11.97;;
11514;SDS011;5814;41.936;25.556;2022-10-17T04:53:18;14.20;;;12.73;;
11514;SDS011;5814;41.936;25.556;2022-10-17T04:55:46;18.97;;;17.10;;
11514;SDS011;5814;41.936;25.556;2022-10-17T04:58:13;12.53;;;11.33;;
11514;SDS011;5814;41.936;25.556;2022-10-17T05:00:40;13.27;;;11.90;;
11514;SDS011;5814;41.936;25.556;2022-10-17T05:03:07;11.87;;;10.77;;
11514;SDS011;5814;41.936;25.556;2022-10-17T05:05:37;14.50;;;12.43;;
11514;SDS011;5814;41.936;25.556;2022-10-17T05:08:04;14.07;;;12.37;;
11514;SDS011;5814;41.936;25.556;2022-10-17T05:10:35;16.30;;;12.63;;
11514;SDS011;5814;41.936;25.556;2022-10-17T05:13:03;15.90;;;11.90;;
11514;SDS011;5814;41.936;25.556;2022-10-17T05:15:30;16.40;;;13.17;;
11514;SDS011;5814;41.936;25.556;2022-10-17T05:17:57;13.90;;;12.50;;
11514;SDS011;5814;41.936;25.556;2022-10-17T05:20:25;15.93;;;14.37;;
11514;SDS011;5814;41.936;25.556;2022-10-17T05:22:52;13.93;;;11.70;;
11514;SDS011;5814;41.936;25.556;2022-10-17T05:25:19;11.13;;;10.20;;
11514;SDS011;5814;41.936;25.556;2022-10-17T05:27:46;15.90;;;10.20;;
11514;SDS011;5814;41.936;25.556;2022-10-17T05:30:13;14.70;;;11.37;;
11514;SDS011;5814;41.936;25.556;2022-10-17T05:32:41;16.03;;;13.30;;
11514;SDS011;5814;41.936;25.556;2022-10-17T05:35:08;12.60;;;11.40;;
11514;SDS011;5814;41.936;25.556;2022-10-17T05:37:35;16.80;;;13.43;;
11514;SDS011;5814;41.936;25.556;2022-10-17T05:40:02;11.73;;;10.60;;
11514;SDS011;5814;41.936;25.556;2022-10-17T05:42:30;15.17;;;12.43;;
11514;SDS011;5814;41.936;25.556;2022-10-17T05:44:57;13.97;;;12.50;;
11514;SDS011;5814;41.936;25.556;2022-10-17T05:47:24;14.53;;;12.90;;
11514;SDS011;5814;41.936;25.556;2022-10-17T05:49:52;15.57;;;12.93;;
11514;SDS011;5814;41.936;25.556;2022-10-17T05:52:19;13.47;;;12.27;;
11514;SDS011;5814;41.936;25.556;2022-10-17T05:54:46;13.03;;;11.70;;
11514;SDS011;5814;41.936;25.556;2022-10-17T05:57:13;14.00;;;12.57;;
11514;SDS011;5814;41.936;25.556;2022-10-17T05:59:40;13.23;;;11.80;;
11514;SDS011;5814;41.936;25.556;2022-10-17T06:02:08;12.00;;;10.90;;
11514;SDS011;5814;41.936;25.556;2022-10-17T06:04:35;13.23;;;12.23;;
11514;SDS011;5814;41.936;25.556;2022-10-17T06:07:02;13.93;;;11.17;;
11514;SDS011;5814;41.936;25.556;2022-10-17T06:09:29;13.53;;;12.33;;
11514;SDS011;5814;41.936;25.556;2022-10-17T06:11:56;14.57;;;13.07;;
11514;SDS011;5814;41.936;25.556;2022-10-17T06:14:23;13.67;;;12.40;;
11514;SDS011;5814;41.936;25.556;2022-10-17T06:16:51;16.33;;;14.90;;
11514;SDS011;5814;41.936;25.556;2022-10-17T06:19:18;17.27;;;15.23;;
11514;SDS011;5814;41.936;25.556;2022-10-17T06:21:45;13.40;;;12.10;;
11514;SDS011;5814;41.936;25.556;2022-10-17T06:24:12;17.40;;;15.43;;
11514;SDS011;5814;41.936;25.556;2022-10-17T06:26:39;14.60;;;13.37;;
11514;SDS011;5814;41.936;25.556;2022-10-17T06:29:07;16.03;;;14.53;;
11514;SDS011;5814;41.936;25.556;2022-10-17T06:31:34;16.17;;;14.50;;
11514;SDS011;5814;41.936;25.556;2022-10-17T06:34:01;15.07;;;12.67;;
11514;SDS011;5814;41.936;25.556;2022-10-17T06:36:28;18.33;;;15.00;;
11514;SDS011;5814;41.936;25.556;2022-10-17T06:38:55;15.00;;;10.80;;
11514;SDS011;5814;41.936;25.556;2022-10-17T06:41:22;11.60;;;10.47;;
11514;SDS011;5814;41.936;25.556;2022-10-17T06:43:50;11.10;;;10.07;;
11514;SDS011;5814;41.936;25.556;2022-10-17T06:46:17;14.33;;;11.43;;
11514;SDS011;5814;41.936;25.556;2022-10-17T06:48:44;12.10;;;10.87;;
11514;SDS011;5814;41.936;25.556;2022-10-17T06:51:11;10.07;;;9.17;;
11514;SDS011;5814;41.936;25.556;2022-10-17T06:53:39;14.17;;;12.93;;
11514;SDS011;5814;41.936;25.556;2022-10-17T06:56:06;10.27;;;9.27;;
11514;SDS011;5814;41.936;25.556;2022-10-17T06:58:34;10.53;;;9.53;;
11514;SDS011;5814;41.936;25.556;2022-10-17T07:01:03;10.87;;;9.90;;
11514;SDS011;5814;41.936;25.556;2022-10-17T07:03:29;12.63;;;11.53;;
11514;SDS011;5814;41.936;25.556;2022-10-17T07:05:56;11.83;;;10.93;;
11514;SDS011;5814;41.936;25.556;2022-10-17T07:08:23;14.13;;;12.83;;
11514;SDS011;5814;41.936;25.556;2022-10-17T07:10:50;13.13;;;11.93;;
11514;SDS011;5814;41.936;25.556;2022-10-17T07:13:18;11.70;;;10.53;;
11514;SDS011;5814;41.936;25.556;2022-10-17T07:15:45;10.23;;;9.33;;
11514;SDS011;5814;41.936;25.556;2022-10-17T07:18:12;9.60;;;8.57;;
11514;SDS011;5814;41.936;25.556;2022-10-17T07:20:39;12.67;;;9.80;;
11514;SDS011;5814;41.936;25.556;2022-10-17T07:23:06;10.00;;;9.20;;
11514;SDS011;5814;41.936;25.556;2022-10-17T07:25:33;13.27;;;11.13;;
11514;SDS011;5814;41.936;25.556;2022-10-17T07:28:00;11.27;;;10.13;;
11514;SDS011;5814;41.936;25.556;2022-10-17T07:30:28;14.00;;;10.00;;
11514;SDS011;5814;41.936;25.556;2022-10-17T07:32:55;11.53;;;10.23;;
11514;SDS011;5814;41.936;25.556;2022-10-17T07:35:22;15.67;;;9.83;;
11514;SDS011;5814;41.936;25.556;2022-10-17T07:37:49;17.73;;;14.57;;
11514;SDS011;5814;41.936;25.556;2022-10-17T07:40:16;19.60;;;15.00;;
11514;SDS011;5814;41.936;25.556;2022-10-17T07:42:44;15.90;;;14.37;;
11514;SDS011;5814;41.936;25.556;2022-10-17T07:45:11;18.10;;;16.33;;
11514;SDS011;5814;41.936;25.556;2022-10-17T07:47:38;12.00;;;10.80;;
11514;SDS011;5814;41.936;25.556;2022-10-17T07:50:05;11.40;;;10.47;;
11514;SDS011;5814;41.936;25.556;2022-10-17T07:52:33;10.60;;;9.50;;
11514;SDS011;5814;41.936;25.556;2022-10-17T07:55:01;11.03;;;9.47;;
11514;SDS011;5814;41.936;25.556;2022-10-17T07:57:28;10.57;;;9.70;;
11514;SDS011;5814;41.936;25.556;2022-10-17T07:59:55;12.27;;;11.17;;
11514;SDS011;5814;41.936;25.556;2022-10-17T08:02:23;15.53;;;12.17;;
11514;SDS011;5814;41.936;25.556;2022-10-17T08:04:50;9.85;;;9.13;;
11514;SDS011;5814;41.936;25.556;2022-10-17T08:07:17;12.10;;;10.70;;
11514;SDS011;5814;41.936;25.556;2022-10-17T08:09:44;10.23;;;9.43;;
11514;SDS011;5814;41.936;25.556;2022-10-17T08:12:12;12.70;;;11.23;;
11514;SDS011;5814;41.936;25.556;2022-10-17T08:14:40;10.90;;;10.00;;
11514;SDS011;5814;41.936;25.556;2022-10-17T08:17:07;9.75;;;8.80;;
11514;SDS011;5814;41.936;25.556;2022-10-17T08:19:37;12.40;;;10.68;;
11514;SDS011;5814;41.936;25.556;2022-10-17T08:22:03;8.43;;;7.72;;
11514;SDS011;5814;41.936;25.556;2022-10-17T08:24:30;7.75;;;7.15;;
11514;SDS011;5814;41.936;25.556;2022-10-17T08:26:57;9.52;;;8.75;;
11514;SDS011;5814;41.936;25.556;2022-10-17T08:29:25;9.20;;;8.30;;
11514;SDS011;5814;41.936;25.556;2022-10-17T08:31:52;7.55;;;6.95;;
11514;SDS011;5814;41.936;25.556;2022-10-17T08:34:19;7.50;;;6.80;;
11514;SDS011;5814;41.936;25.556;2022-10-17T08:36:46;8.70;;;6.40;;
11514;SDS011;5814;41.936;25.556;2022-10-17T08:39:13;6.60;;;6.05;;
11514;SDS011;5814;41.936;25.556;2022-10-17T08:44:24;8.02;;;7.22;;
11514;SDS011;5814;41.936;25.556;2022-10-17T08:46:51;6.28;;;5.82;;
11514;SDS011;5814;41.936;25.556;2022-10-17T08:49:51;6.40;;;5.90;;
11514;SDS011;5814;41.936;25.556;2022-10-17T08:52:08;6.80;;;5.00;;
11514;SDS011;5814;41.936;25.556;2022-10-17T08:54:41;6.93;;;6.53;;
11514;SDS011;5814;41.936;25.556;2022-10-17T08:57:11;8.57;;;7.22;;
11514;SDS011;5814;41.936;25.556;2022-10-17T08:59:37;7.37;;;6.70;;
11514;SDS011;5814;41.936;25.556;2022-10-17T09:02:17;6.68;;;6.10;;
11514;SDS011;5814;41.936;25.556;2022-10-17T09:04:49;8.55;;;7.32;;
11514;SDS011;5814;41.936;25.556;2022-10-17T09:07:17;6.22;;;5.70;;
11514;SDS011;5814;41.936;25.556;2022-10-17T09:09:48;7.72;;;7.10;;
11514;SDS011;5814;41.936;25.556;2022-10-17T09:12:16;7.45;;;6.95;;
11514;SDS011;5814;41.936;25.556;2022-10-17T09:14:49;9.00;;;8.30;;
11514;SDS011;5814;41.936;25.556;2022-10-17T09:17:25;6.47;;;5.90;;
11514;SDS011;5814;41.936;25.556;2022-10-17T09:20:13;6.82;;;6.32;;
11514;SDS011;5814;41.936;25.556;2022-10-17T09:22:41;6.20;;;5.60;;
11514;SDS011;5814;41.936;25.556;2022-10-17T09:25:22;6.37;;;5.87;;
11514;SDS011;5814;41.936;25.556;2022-10-17T09:27:51;7.47;;;6.97;;
11514;SDS011;5814;41.936;25.556;2022-10-17T09:30:26;8.73;;;7.95;;
11514;SDS011;5814;41.936;25.556;2022-10-17T09:33:12;9.10;;;8.23;;
11514;SDS011;5814;41.936;25.556;2022-10-17T09:35:38;7.05;;;6.50;;
11514;SDS011;5814;41.936;25.556;2022-10-17T09:38:07;8.88;;;7.53;;
11514;SDS011;5814;41.936;25.556;2022-10-17T09:40:33;6.47;;;6.00;;
11514;SDS011;5814;41.936;25.556;2022-10-17T09:43:00;6.40;;;5.82;;
11514;SDS011;5814;41.936;25.556;2022-10-17T09:45:27;7.82;;;7.22;;
11514;SDS011;5814;41.936;25.556;2022-10-17T09:48:01;8.50;;;7.80;;
11514;SDS011;5814;41.936;25.556;2022-10-17T09:50:32;6.47;;;6.07;;
11514;SDS011;5814;41.936;25.556;2022-10-17T09:59:32;6.75;;;5.85;;
11514;SDS011;5814;41.936;25.556;2022-10-17T10:04:34;6.45;;;6.00;;
11514;SDS011;5814;41.936;25.556;2022-10-17T10:07:03;7.00;;;6.50;;
11514;SDS011;5814;41.936;25.556;2022-10-17T10:09:29;7.70;;;6.53;;
11514;SDS011;5814;41.936;25.556;2022-10-17T10:11:56;6.05;;;5.68;;
11514;SDS011;5814;41.936;25.556;2022-10-17T10:14:28;7.30;;;6.57;;
11514;SDS011;5814;41.936;25.556;2022-10-17T10:16:55;7.28;;;6.68;;
11514;SDS011;5814;41.936;25.556;2022-10-17T10:19:28;8.27;;;7.43;;
11514;SDS011;5814;41.936;25.556;2022-10-17T10:21:55;7.90;;;7.25;;
11514;SDS011;5814;41.936;25.556;2022-10-17T10:24:24;7.75;;;7.25;;
11514;SDS011;5814;41.936;25.556;2022-10-17T10:26:52;6.45;;;5.90;;
11514;SDS011;5814;41.936;25.556;2022-10-17T10:29:20;7.43;;;5.80;;
11514;SDS011;5814;41.936;25.556;2022-10-17T10:31:48;6.60;;;5.90;;
11514;SDS011;5814;41.936;25.556;2022-10-17T10:34:17;6.07;;;5.57;;
11514;SDS011;5814;41.936;25.556;2022-10-17T10:36:43;5.93;;;5.62;;
11514;SDS011;5814;41.936;25.556;2022-10-17T10:39:23;6.22;;;5.68;;
11514;SDS011;5814;41.936;25.556;2022-10-17T10:41:57;6.37;;;5.97;;
11514;SDS011;5814;41.936;25.556;2022-10-17T10:44:25;9.00;;;6.78;;
11514;SDS011;5814;41.936;25.556;2022-10-17T10:47:24;7.45;;;6.85;;
11514;SDS011;5814;41.936;25.556;2022-10-17T10:49:33;7.10;;;6.50;;
11514;SDS011;5814;41.936;25.556;2022-10-17T10:52:00;7.10;;;6.40;;
11514;SDS011;5814;41.936;25.556;2022-10-17T10:54:28;7.22;;;6.70;;
11514;SDS011;5814;41.936;25.556;2022-10-17T10:56:55;6.20;;;5.78;;
11514;SDS011;5814;41.936;25.556;2022-10-17T10:59:28;6.32;;;5.82;;
11514;SDS011;5814;41.936;25.556;2022-10-17T11:01:57;5.78;;;5.37;;
11514;SDS011;5814;41.936;25.556;2022-10-17T11:04:57;6.22;;;5.55;;
11514;SDS011;5814;41.936;25.556;2022-10-17T11:07:13;6.25;;;5.80;;
11514;SDS011;5814;41.936;25.556;2022-10-17T11:09:50;6.22;;;5.72;;
11514;SDS011;5814;41.936;25.556;2022-10-17T11:12:21;6.28;;;5.90;;
11514;SDS011;5814;41.936;25.556;2022-10-17T11:15:07;6.70;;;5.93;;
11514;SDS011;5814;41.936;25.556;2022-10-17T11:17:47;6.95;;;6.45;;
11514;SDS011;5814;41.936;25.556;2022-10-17T11:20:18;6.22;;;5.82;;
11514;SDS011;5814;41.936;25.556;2022-10-17T11:22:45;6.60;;;6.10;;
11514;SDS011;5814;41.936;25.556;2022-10-17T11:25:19;6.93;;;5.78;;
11514;SDS011;5814;41.936;25.556;2022-10-17T11:27:47;6.43;;;5.95;;
11514;SDS011;5814;41.936;25.556;2022-10-17T11:30:15;6.05;;;5.65;;
11514;SDS011;5814;41.936;25.556;2022-10-17T11:32:44;7.25;;;6.57;;
11514;SDS011;5814;41.936;25.556;2022-10-17T11:35:16;6.90;;;6.20;;
11514;SDS011;5814;41.936;25.556;2022-10-17T11:37:59;6.03;;;5.53;;
11514;SDS011;5814;41.936;25.556;2022-10-17T11:40:39;6.85;;;6.35;;
11514;SDS011;5814;41.936;25.556;2022-10-17T11:43:12;6.75;;;6.28;;
11514;SDS011;5814;41.936;25.556;2022-10-17T11:45:39;7.03;;;6.43;;
11514;SDS011;5814;41.936;25.556;2022-10-17T11:48:05;6.30;;;5.80;;
11514;SDS011;5814;41.936;25.556;2022-10-17T11:50:44;6.18;;;5.75;;
11514;SDS011;5814;41.936;25.556;2022-10-17T11:53:14;7.47;;;6.90;;
11514;SDS011;5814;41.936;25.556;2022-10-17T11:55:40;6.95;;;5.93;;
11514;SDS011;5814;41.936;25.556;2022-10-17T11:58:14;6.25;;;5.62;;
11514;SDS011;5814;41.936;25.556;2022-10-17T12:00:46;7.07;;;6.28;;
11514;SDS011;5814;41.936;25.556;2022-10-17T12:04:00;5.80;;;5.43;;
11514;SDS011;5814;41.936;25.556;2022-10-17T12:07:21;9.38;;;5.75;;
11514;SDS011;5814;41.936;25.556;2022-10-17T12:09:08;5.87;;;5.47;;
11514;SDS011;5814;41.936;25.556;2022-10-17T12:11:52;5.95;;;5.50;;
11514;SDS011;5814;41.936;25.556;2022-10-17T12:16:58;6.12;;;5.30;;
11514;SDS011;5814;41.936;25.556;2022-10-17T12:19:27;5.57;;;5.18;;
11514;SDS011;5814;41.936;25.556;2022-10-17T12:21:55;5.80;;;5.30;;
11514;SDS011;5814;41.936;25.556;2022-10-17T12:24:29;5.75;;;5.12;;
11514;SDS011;5814;41.936;25.556;2022-10-17T12:26:54;5.78;;;5.20;;
11514;SDS011;5814;41.936;25.556;2022-10-17T12:29:24;5.47;;;4.82;;
11514;SDS011;5814;41.936;25.556;2022-10-17T12:31:48;5.45;;;4.97;;
11514;SDS011;5814;41.936;25.556;2022-10-17T12:34:16;5.12;;;4.68;;
11514;SDS011;5814;41.936;25.556;2022-10-17T12:36:43;5.22;;;4.93;;
11514;SDS011;5814;41.936;25.556;2022-10-17T12:39:39;5.93;;;5.53;;
11514;SDS011;5814;41.936;25.556;2022-10-17T12:41:55;5.78;;;5.28;;
11514;SDS011;5814;41.936;25.556;2022-10-17T12:49:54;5.80;;;5.30;;
11514;SDS011;5814;41.936;25.556;2022-10-17T12:52:22;5.90;;;5.40;;
11514;SDS011;5814;41.936;25.556;2022-10-17T12:57:43;6.62;;;5.97;;
11514;SDS011;5814;41.936;25.556;2022-10-17T13:00:29;6.28;;;5.72;;
11514;SDS011;5814;41.936;25.556;2022-10-17T13:03:10;5.90;;;5.43;;
11514;SDS011;5814;41.936;25.556;2022-10-17T13:05:37;6.07;;;5.57;;
11514;SDS011;5814;41.936;25.556;2022-10-17T13:08:05;9.10;;;5.80;;
11514;SDS011;5814;41.936;25.556;2022-10-17T13:10:32;5.70;;;5.30;;
11514;SDS011;5814;41.936;25.556;2022-10-17T13:13:05;6.10;;;5.50;;
11514;SDS011;5814;41.936;25.556;2022-10-17T13:15:32;6.25;;;5.82;;
11514;SDS011;5814;41.936;25.556;2022-10-17T13:17:59;7.47;;;5.93;;
11514;SDS011;5814;41.936;25.556;2022-10-17T13:20:27;6.25;;;5.75;;
11514;SDS011;5814;41.936;25.556;2022-10-17T13:22:54;6.95;;;5.30;;
11514;SDS011;5814;41.936;25.556;2022-10-17T13:25:21;5.87;;;5.20;;
11514;SDS011;5814;41.936;25.556;2022-10-17T13:27:48;6.55;;;6.00;;
11514;SDS011;5814;41.936;25.556;2022-10-17T13:30:21;5.93;;;5.62;;
11514;SDS011;5814;41.936;25.556;2022-10-17T13:32:48;6.87;;;5.68;;
11514;SDS011;5814;41.936;25.556;2022-10-17T13:35:16;6.12;;;5.43;;
11514;SDS011;5814;41.936;25.556;2022-10-17T13:37:44;5.62;;;5.12;;
11514;SDS011;5814;41.936;25.556;2022-10-17T13:40:16;5.53;;;5.22;;
11514;SDS011;5814;41.936;25.556;2022-10-17T13:42:43;5.47;;;5.03;;
11514;SDS011;5814;41.936;25.556;2022-10-17T13:45:15;6.57;;;5.97;;
11514;SDS011;5814;41.936;25.556;2022-10-17T13:47:55;5.78;;;5.37;;
11514;SDS011;5814;41.936;25.556;2022-10-17T13:50:26;6.20;;;5.65;;
11514;SDS011;5814;41.936;25.556;2022-10-17T13:55:31;5.53;;;5.03;;
11514;SDS011;5814;41.936;25.556;2022-10-17T13:58:32;6.18;;;5.68;;
11514;SDS011;5814;41.936;25.556;2022-10-17T14:00:40;6.43;;;5.85;;
11514;SDS011;5814;41.936;25.556;2022-10-17T14:03:07;5.87;;;5.47;;
11514;SDS011;5814;41.936;25.556;2022-10-17T14:05:34;7.05;;;5.40;;
11514;SDS011;5814;41.936;25.556;2022-10-17T14:08:02;6.70;;;5.97;;
11514;SDS011;5814;41.936;25.556;2022-10-17T14:10:33;6.40;;;5.90;;
11514;SDS011;5814;41.936;25.556;2022-10-17T14:12:59;6.35;;;5.57;;
11514;SDS011;5814;41.936;25.556;2022-10-17T14:15:27;8.30;;;5.72;;
11514;SDS011;5814;41.936;25.556;2022-10-17T14:17:56;7.00;;;6.43;;
11514;SDS011;5814;41.936;25.556;2022-10-17T14:20:25;6.62;;;6.10;;
11514;SDS011;5814;41.936;25.556;2022-10-17T14:22:52;6.20;;;5.60;;
11514;SDS011;5814;41.936;25.556;2022-10-17T14:27:59;8.57;;;6.62;;
11514;SDS011;5814;41.936;25.556;2022-10-17T14:30:30;8.43;;;7.60;;
11514;SDS011;5814;41.936;25.556;2022-10-17T14:32:58;8.32;;;7.07;;
11514;SDS011;5814;41.936;25.556;2022-10-17T14:35:24;6.55;;;5.53;;
11514;SDS011;5814;41.936;25.556;2022-10-17T14:37:52;7.90;;;5.85;;
11514;SDS011;5814;41.936;25.556;2022-10-17T14:40:21;9.43;;;5.82;;
11514;SDS011;5814;41.936;25.556;2022-10-17T14:42:46;6.97;;;6.40;;
11514;SDS011;5814;41.936;25.556;2022-10-17T14:45:14;6.75;;;6.03;;
11514;SDS011;5814;41.936;25.556;2022-10-17T14:47:40;6.50;;;5.90;;
11514;SDS011;5814;41.936;25.556;2022-10-17T14:50:25;6.62;;;6.12;;
11514;SDS011;5814;41.936;25.556;2022-10-17T14:55:30;7.93;;;6.05;;
11514;SDS011;5814;41.936;25.556;2022-10-17T14:57:57;8.02;;;7.03;;
11514;SDS011;5814;41.936;25.556;2022-10-17T15:00:24;6.82;;;6.22;;
11514;SDS011;5814;41.936;25.556;2022-10-17T15:02:51;7.25;;;6.60;;
11514;SDS011;5814;41.936;25.556;2022-10-17T15:05:18;9.00;;;6.78;;
11514;SDS011;5814;41.936;25.556;2022-10-17T15:07:45;7.15;;;6.43;;
11514;SDS011;5814;41.936;25.556;2022-10-17T15:10:19;9.90;;;7.37;;
11514;SDS011;5814;41.936;25.556;2022-10-17T15:12:50;8.00;;;6.82;;
11514;SDS011;5814;41.936;25.556;2022-10-17T15:15:18;9.68;;;6.68;;
11514;SDS011;5814;41.936;25.556;2022-10-17T15:17:45;6.90;;;6.40;;
11514;SDS011;5814;41.936;25.556;2022-10-17T15:20:13;20.00;;;7.68;;
11514;SDS011;5814;41.936;25.556;2022-10-17T15:22:39;9.07;;;7.25;;